Time;durP1;ratioP1;P1;durP2;ratioP2;P2;SDS_P1;SDS_P2;PMS_P1;PMS_P2;Temp;Humidity;BMP_temperature;BMP_pressure;BME280_temperature;BME280_humidity;BME280_pressure;Samples;Min_cycle;Max_cycle;Signal;HPM_P1;HPM_P2
2024/03/30 00:00:00;;;;;;;10.52;2.20;;;7.60;99.90;;;;;;6270946;28;20053;-81
2024/03/30 00:03:00;;;;;;;8.30;1.60;;;7.50;99.90;;;;;;6274811;28;20060;-80
2024/03/30 00:06:01;;;;;;;7.38;1.60;;;7.50;99.90;;;;;;6268100;28;20048;-81
2024/03/30 00:09:03;;;;;;;8.98;1.60;;;7.30;99.90;;;;;;6273206;28;20492;-81
2024/03/30 00:12:03;;;;;;;9.80;2.10;;;7.30;99.90;;;;;;6291269;28;20070;-80
2024/03/30 00:15:04;;;;;;;8.32;2.25;;;7.30;99.90;;;;;;6262508;28;20049;-79
2024/03/30 00:18:05;;;;;;;13.20;2.55;;;7.20;99.90;;;;;;6281049;28;20076;-81
2024/03/30 00:21:05;;;;;;;11.75;2.83;;;7.30;99.90;;;;;;6283903;28;20424;-80
2024/03/30 00:24:06;;;;;;;15.65;2.88;;;7.30;99.90;;;;;;6291286;28;20054;-80
2024/03/30 00:27:07;;;;;;;10.60;3.30;;;7.40;99.90;;;;;;6267496;28;20053;-80
2024/03/30 00:30:07;;;;;;;9.98;3.30;;;7.40;99.90;;;;;;6269047;28;20056;-80
2024/03/30 00:33:08;;;;;;;18.83;3.75;;;7.40;99.90;;;;;;6267215;28;20057;-80
2024/03/30 00:36:08;;;;;;;11.38;2.75;;;7.40;99.90;;;;;;6291333;28;20056;-80
2024/03/30 00:39:11;;;;;;;10.45;2.50;;;7.50;99.90;;;;;;6265704;28;20413;-80
2024/03/30 00:42:12;;;;;;;14.50;3.03;;;7.50;99.90;;;;;;6275026;28;20068;-80
2024/03/30 00:45:13;;;;;;;12.15;3.03;;;7.50;99.90;;;;;;6240935;28;20063;-79
2024/03/30 00:48:13;;;;;;;8.13;2.30;;;7.50;99.90;;;;;;6291075;28;20488;-79
2024/03/30 00:51:14;;;;;;;12.32;2.25;;;7.40;99.90;;;;;;6267853;28;20061;-80
2024/03/30 00:54:15;;;;;;;8.50;2.00;;;7.30;99.90;;;;;;6290889;28;20591;-79
2024/03/30 00:57:16;;;;;;;9.77;2.25;;;7.10;99.90;;;;;;6267453;28;20065;-80
2024/03/30 01:00:17;;;;;;;11.60;1.98;;;7.00;99.90;;;;;;6268826;28;20067;-79
2024/03/30 01:03:17;;;;;;;10.18;2.35;;;6.90;99.90;;;;;;6250589;28;20420;-78
2024/03/30 01:06:18;;;;;;;10.88;2.17;;;6.80;99.90;;;;;;6324406;28;20435;-79
2024/03/30 01:09:18;;;;;;;12.25;2.40;;;6.60;99.90;;;;;;6267568;28;20056;-81
2024/03/30 01:12:19;;;;;;;6.15;1.50;;;6.50;99.90;;;;;;6285861;28;20057;-78
2024/03/30 01:15:22;;;;;;;13.10;2.20;;;6.40;99.90;;;;;;6280663;28;20405;-78
2024/03/30 01:18:22;;;;;;;8.35;1.63;;;6.40;99.90;;;;;;6267593;28;20056;-81
2024/03/30 01:21:23;;;;;;;9.23;1.80;;;6.30;99.90;;;;;;6289715;28;20102;-78
2024/03/30 01:24:24;;;;;;;12.77;2.33;;;6.40;99.90;;;;;;6250397;28;20096;-78
2024/03/30 01:27:25;;;;;;;8.82;1.67;;;6.50;99.90;;;;;;6290772;28;20803;-78
2024/03/30 01:30:25;;;;;;;7.90;1.38;;;6.50;99.90;;;;;;6256414;28;20141;-79
2024/03/30 01:33:26;;;;;;;8.20;1.95;;;6.40;99.90;;;;;;6290735;28;20048;-79
2024/03/30 01:36:27;;;;;;;9.50;1.58;;;6.30;99.90;;;;;;6266843;28;20122;-79
2024/03/30 01:39:28;;;;;;;7.60;1.38;;;6.30;99.90;;;;;;6288443;28;20137;-79
2024/03/30 01:42:29;;;;;;;7.38;1.30;;;6.20;99.90;;;;;;6266588;28;20144;-79
2024/03/30 01:45:30;;;;;;;7.00;1.33;;;6.20;99.90;;;;;;6285724;28;20507;-79
2024/03/30 01:48:30;;;;;;;8.25;1.42;;;6.20;99.90;;;;;;6271616;28;20049;-79
2024/03/30 01:51:31;;;;;;;8.27;1.58;;;6.30;99.90;;;;;;6284370;28;20056;-79
2024/03/30 01:54:32;;;;;;;7.22;1.55;;;6.30;99.90;;;;;;6294902;28;20059;-80
2024/03/30 01:57:32;;;;;;;6.85;1.30;;;6.30;99.90;;;;;;6254188;28;20140;-79
2024/03/30 02:00:33;;;;;;;6.28;1.50;;;6.30;99.90;;;;;;6270620;28;20091;-79
2024/03/30 02:03:34;;;;;;;6.78;2.03;;;6.30;99.90;;;;;;6271057;28;20143;-79
2024/03/30 02:06:35;;;;;;;4.72;1.30;;;6.20;99.90;;;;;;6294633;28;20103;-79
2024/03/30 02:09:36;;;;;;;5.97;1.52;;;6.20;99.90;;;;;;6270606;28;20463;-79
2024/03/30 02:12:36;;;;;;;11.77;1.75;;;6.20;99.90;;;;;;6286537;28;20084;-79
2024/03/30 02:15:37;;;;;;;7.28;1.48;;;6.20;99.90;;;;;;6256231;28;20687;-79
2024/03/30 02:18:38;;;;;;;7.15;1.73;;;6.20;99.90;;;;;;6293946;28;20052;-79
2024/03/30 02:21:39;;;;;;;10.77;1.95;;;6.30;99.90;;;;;;6282253;28;20063;-78
2024/03/30 02:24:39;;;;;;;6.03;1.65;;;6.50;99.90;;;;;;6269890;28;20057;-79
2024/03/30 02:27:40;;;;;;;7.85;1.90;;;6.50;99.90;;;;;;6277018;28;20411;-79
2024/03/30 02:30:41;;;;;;;6.90;1.90;;;6.60;99.90;;;;;;6238731;28;20060;-79
2024/03/30 02:33:41;;;;;;;10.95;2.03;;;6.60;99.90;;;;;;6277298;28;20578;-78
2024/03/30 02:36:42;;;;;;;9.20;1.55;;;6.60;99.90;;;;;;6294061;28;20056;-79
2024/03/30 02:39:43;;;;;;;6.40;1.45;;;6.70;99.90;;;;;;6270251;28;20170;-79
2024/03/30 02:42:43;;;;;;;7.90;1.95;;;6.80;99.90;;;;;;6270016;28;20053;-79
2024/03/30 02:45:44;;;;;;;8.38;1.38;;;6.90;99.90;;;;;;6312448;28;20060;-79
2024/03/30 02:48:45;;;;;;;8.77;1.85;;;6.90;99.90;;;;;;6270044;28;20057;-79
2024/03/30 02:51:45;;;;;;;6.03;1.88;;;6.90;99.90;;;;;;6293111;28;20056;-78
2024/03/30 02:54:48;;;;;;;7.72;1.63;;;6.90;99.90;;;;;;6253238;28;20064;-78
2024/03/30 02:57:48;;;;;;;6.88;1.77;;;6.80;99.90;;;;;;6293062;28;20064;-78
2024/03/30 03:00:49;;;;;;;12.48;1.70;;;6.80;99.90;;;;;;6254165;28;20098;-78
2024/03/30 03:03:49;;;;;;;6.70;1.40;;;6.80;99.90;;;;;;6277209;28;20493;-79
2024/03/30 03:06:50;;;;;;;7.68;1.90;;;6.80;99.90;;;;;;6274541;28;20133;-78
2024/03/30 03:09:51;;;;;;;5.65;1.40;;;6.60;99.90;;;;;;6293067;28;20106;-78
2024/03/30 03:12:51;;;;;;;8.52;1.40;;;6.50;99.90;;;;;;6268980;28;20571;-78
2024/03/30 03:15:52;;;;;;;5.13;1.42;;;6.30;99.90;;;;;;6282605;28;20141;-80
2024/03/30 03:18:53;;;;;;;7.28;1.58;;;6.20;99.90;;;;;;6268879;28;20523;-80
2024/03/30 03:21:53;;;;;;;8.65;1.88;;;6.10;99.90;;;;;;6277349;28;20057;-80
2024/03/30 03:24:54;;;;;;;8.23;2.20;;;6.00;99.90;;;;;;6291887;28;20052;-80
2024/03/30 03:27:55;;;;;;;12.93;1.98;;;6.10;99.90;;;;;;6268993;28;20087;-79
2024/03/30 03:30:55;;;;;;;13.45;2.20;;;6.00;99.90;;;;;;6284703;28;20067;-79
2024/03/30 03:33:56;;;;;;;6.50;2.35;;;6.00;99.90;;;;;;6257677;28;20049;-78
2024/03/30 03:36:56;;;;;;;7.22;2.53;;;5.90;99.90;;;;;;6292512;28;20056;-79
2024/03/30 03:39:57;;;;;;;8.63;2.70;;;5.80;99.90;;;;;;6268917;28;20049;-79
2024/03/30 03:42:58;;;;;;;7.55;2.42;;;5.80;99.90;;;;;;6278651;28;20382;-78
2024/03/30 03:45:59;;;;;;;7.60;2.85;;;5.70;99.90;;;;;;6266848;28;20650;-79
2024/03/30 03:48:59;;;;;;;9.20;3.22;;;5.70;99.90;;;;;;6243754;28;20049;-79
2024/03/30 03:52:00;;;;;;;11.95;3.33;;;5.70;99.90;;;;;;6286469;28;20507;-79
2024/03/30 03:55:01;;;;;;;12.40;2.67;;;5.70;99.90;;;;;;6291804;28;20060;-79
2024/03/30 03:58:02;;;;;;;8.73;2.50;;;5.60;99.90;;;;;;6268502;28;20143;-78
2024/03/30 04:01:02;;;;;;;7.38;2.40;;;5.50;99.90;;;;;;6282619;28;20491;-79
2024/03/30 04:04:03;;;;;;;6.22;2.30;;;5.50;99.90;;;;;;6264689;28;20063;-79
2024/03/30 04:07:04;;;;;;;8.30;2.60;;;5.50;99.90;;;;;;6255522;28;20060;-79
2024/03/30 04:10:07;;;;;;;7.65;2.63;;;5.50;99.90;;;;;;6290935;28;20575;-78
2024/03/30 04:13:07;;;;;;;10.25;2.20;;;5.50;99.90;;;;;;6252082;28;20076;-79
2024/03/30 04:16:08;;;;;;;9.70;2.50;;;5.40;99.90;;;;;;6286950;28;20048;-78
2024/03/30 04:19:08;;;;;;;6.35;2.50;;;5.40;99.90;;;;;;6242847;28;20064;-78
2024/03/30 04:22:09;;;;;;;11.05;2.60;;;5.40;99.90;;;;;;6301040;28;20227;-78
2024/03/30 04:25:10;;;;;;;10.07;2.67;;;5.30;99.90;;;;;;6291117;28;20060;-79
2024/03/30 04:28:10;;;;;;;9.93;2.78;;;5.30;99.90;;;;;;6252354;28;20053;-79
2024/03/30 04:31:11;;;;;;;7.45;2.67;;;5.30;99.90;;;;;;6270663;28;20483;-78
2024/03/30 04:34:12;;;;;;;10.02;2.78;;;5.30;99.90;;;;;;6275996;28;20064;-79
2024/03/30 04:37:12;;;;;;;10.38;2.30;;;5.30;99.90;;;;;;6290420;28;20506;-78
2024/03/30 04:40:13;;;;;;;10.52;3.05;;;5.40;99.90;;;;;;6251034;28;20064;-78
2024/03/30 04:43:13;;;;;;;9.75;2.50;;;5.40;99.90;;;;;;6288741;28;20067;-79
2024/03/30 04:46:14;;;;;;;11.48;2.90;;;5.40;99.90;;;;;;6256641;28;20068;-78
2024/03/30 04:49:15;;;;;;;7.28;2.67;;;5.40;99.90;;;;;;6250536;28;20151;-78
2024/03/30 04:52:15;;;;;;;8.13;2.70;;;5.40;99.90;;;;;;6324397;28;20106;-78
2024/03/30 04:55:16;;;;;;;10.30;2.85;;;5.40;99.90;;;;;;6267656;28;20056;-79
2024/03/30 04:58:17;;;;;;;8.52;2.53;;;5.40;99.90;;;;;;6287782;28;20472;-78
2024/03/30 05:01:18;;;;;;;6.13;2.22;;;5.50;99.90;;;;;;6259166;28;20060;-79
2024/03/30 05:04:18;;;;;;;7.45;2.30;;;5.50;99.90;;;;;;6324610;28;20060;-78
2024/03/30 05:07:19;;;;;;;5.28;2.25;;;5.50;99.90;;;;;;6265162;28;20424;-79
2024/03/30 05:10:19;;;;;;;5.68;2.20;;;5.50;99.90;;;;;;6274055;28;20057;-78
2024/03/30 05:13:20;;;;;;;6.20;1.85;;;5.50;99.90;;;;;;6321036;28;20084;-79
2024/03/30 05:16:21;;;;;;;6.75;1.63;;;5.50;99.90;;;;;;6261219;28;20049;-78
2024/03/30 05:22:41;;;;;;;10.30;2.55;;;5.50;99.90;;;;;;6278995;28;20061;-78
2024/03/30 05:25:42;;;;;;;7.18;1.90;;;5.50;99.90;;;;;;6325818;28;20059;-79
2024/03/30 05:28:42;;;;;;;6.97;1.75;;;5.60;99.90;;;;;;6269023;28;20132;-80
2024/03/30 05:31:43;;;;;;;7.75;2.17;;;5.70;99.90;;;;;;6296237;28;20722;-79
2024/03/30 05:34:44;;;;;;;8.05;2.55;;;5.70;99.90;;;;;;6272301;28;20182;-80
2024/03/30 05:37:44;;;;;;;8.40;2.28;;;5.70;99.90;;;;;;6269760;28;20063;-81
2024/03/30 05:40:45;;;;;;;7.47;2.08;;;5.80;99.90;;;;;;6277229;28;20057;-80
2024/03/30 05:43:46;;;;;;;7.35;2.10;;;5.80;99.90;;;;;;6268015;28;20864;-79
2024/03/30 05:46:46;;;;;;;7.18;2.20;;;5.80;99.90;;;;;;6295202;28;20064;-80
2024/03/30 05:49:47;;;;;;;7.18;2.63;;;5.80;99.90;;;;;;6277203;28;20053;-79
2024/03/30 05:52:47;;;;;;;11.43;3.03;;;6.00;99.90;;;;;;6271009;28;20083;-80
2024/03/30 05:55:48;;;;;;;8.88;2.65;;;6.10;99.90;;;;;;6253852;28;20416;-79
2024/03/30 05:58:50;;;;;;;9.27;2.58;;;6.20;99.90;;;;;;6262297;28;20473;-80
2024/03/30 06:01:50;;;;;;;8.70;2.60;;;6.20;99.90;;;;;;6295685;28;20060;-80
2024/03/30 06:04:51;;;;;;;7.07;2.15;;;6.20;99.90;;;;;;6270652;28;20496;-79
2024/03/30 06:07:52;;;;;;;9.77;2.28;;;6.20;99.90;;;;;;6268353;28;20095;-80
2024/03/30 06:10:52;;;;;;;6.90;2.20;;;6.10;99.90;;;;;;6252298;28;20061;-80
2024/03/30 06:13:53;;;;;;;7.80;2.10;;;6.10;99.90;;;;;;6276253;28;20084;-79
2024/03/30 06:16:54;;;;;;;8.18;2.22;;;6.10;99.90;;;;;;6270036;28;20061;-79
2024/03/30 06:19:55;;;;;;;5.57;1.90;;;6.00;99.90;;;;;;6254491;28;20069;-78
2024/03/30 06:22:56;;;;;;;10.52;2.22;;;6.00;99.90;;;;;;6269573;28;20443;-79
2024/03/30 06:25:56;;;;;;;6.15;2.35;;;6.10;99.90;;;;;;6292730;28;20105;-79
2024/03/30 06:28:57;;;;;;;7.85;1.98;;;6.10;99.90;;;;;;6272481;28;20496;-79
2024/03/30 06:31:58;;;;;;;5.32;1.98;;;6.20;99.90;;;;;;6270174;28;20087;-79
2024/03/30 06:35:00;;;;;;;7.80;1.77;;;6.30;99.90;;;;;;6293627;28;20071;-78
2024/03/30 06:38:00;;;;;;;10.55;1.73;;;6.40;99.90;;;;;;6269698;28;20056;-80
2024/03/30 06:44:21;;;;;;;5.43;1.88;;;6.50;99.90;;;;;;6270636;28;20064;-79
2024/03/30 06:47:21;;;;;;;6.32;1.67;;;6.60;99.90;;;;;;6269768;28;20053;-79
2024/03/30 06:50:22;;;;;;;6.95;2.20;;;6.70;99.90;;;;;;6293053;28;20530;-79
2024/03/30 06:53:23;;;;;;;6.80;1.80;;;6.80;99.90;;;;;;6270016;28;20049;-80
2024/03/30 06:56:23;;;;;;;9.43;2.05;;;6.90;99.90;;;;;;6293462;28;20067;-80
2024/03/30 06:59:24;;;;;;;9.82;1.98;;;7.00;99.90;;;;;;6271242;28;20087;-80
2024/03/30 07:02:25;;;;;;;6.15;1.52;;;7.10;99.90;;;;;;6269276;28;20428;-80
2024/03/30 07:05:25;;;;;;;6.90;2.13;;;7.30;99.90;;;;;;6274810;28;20068;-80
2024/03/30 07:08:26;;;;;;;8.05;2.38;;;7.40;99.90;;;;;;6288757;28;20131;-80
2024/03/30 07:11:27;;;;;;;6.53;2.25;;;7.50;99.90;;;;;;6269050;28;20068;-79
2024/03/30 07:14:28;;;;;;;6.35;1.92;;;7.60;99.90;;;;;;6265050;28;20056;-79
2024/03/30 07:17:29;;;;;;;6.03;1.88;;;7.70;99.90;;;;;;6296339;28;20631;-80
2024/03/30 07:20:30;;;;;;;7.47;2.20;;;7.80;99.90;;;;;;6273067;28;20099;-80
2024/03/30 07:23:31;;;;;;;5.78;2.10;;;7.90;99.90;;;;;;6268598;28;20059;-80
2024/03/30 07:26:31;;;;;;;8.25;2.17;;;8.00;99.90;;;;;;6276187;28;20070;-80
2024/03/30 07:29:32;;;;;;;5.72;2.40;;;8.10;99.90;;;;;;6275813;28;20109;-78
2024/03/30 07:32:33;;;;;;;7.20;2.50;;;8.20;99.90;;;;;;6268445;28;20049;-79
2024/03/30 07:35:33;;;;;;;6.68;2.33;;;8.40;99.90;;;;;;6275607;28;20067;-79
2024/03/30 07:38:35;;;;;;;6.45;2.00;;;8.50;99.90;;;;;;6268924;28;20049;-80
2024/03/30 07:41:36;;;;;;;6.10;2.20;;;8.80;99.90;;;;;;6291906;28;20053;-79
2024/03/30 07:44:36;;;;;;;8.13;2.42;;;8.90;99.90;;;;;;6254334;28;20063;-80
2024/03/30 07:47:38;;;;;;;8.48;2.00;;;9.10;99.90;;;;;;6268210;28;20581;-82
2024/03/30 07:50:38;;;;;;;10.27;2.40;;;9.30;99.90;;;;;;6268395;28;20064;-81
2024/03/30 07:53:39;;;;;;;7.18;2.40;;;9.40;99.90;;;;;;6281888;28;20385;-81
2024/03/30 07:56:39;;;;;;;9.77;2.75;;;9.70;99.90;;;;;;6273900;28;20072;-81
2024/03/30 07:59:40;;;;;;;7.53;3.00;;;10.00;99.90;;;;;;6259256;28;20435;-80
2024/03/30 08:02:41;;;;;;;12.07;3.25;;;10.20;99.90;;;;;;6291348;28;20528;-80
2024/03/30 08:05:42;;;;;;;9.30;2.97;;;10.30;99.90;;;;;;6267833;28;20060;-80
2024/03/30 08:08:43;;;;;;;12.32;3.00;;;10.60;99.90;;;;;;6284675;28;20049;-80
2024/03/30 08:11:44;;;;;;;7.15;2.80;;;10.90;99.90;;;;;;6251151;28;20461;-80
2024/03/30 08:14:44;;;;;;;6.53;2.20;;;11.30;99.90;;;;;;6260259;28;20044;-81
2024/03/30 08:17:45;;;;;;;7.63;2.03;;;12.00;99.90;;;;;;6266923;28;20064;-81
2024/03/30 08:20:45;;;;;;;7.85;2.05;;;12.80;99.90;;;;;;6320300;28;20056;-81
2024/03/30 08:23:46;;;;;;;6.18;1.88;;;13.60;94.20;;;;;;6250980;28;20049;-84
2024/03/30 08:26:47;;;;;;;9.18;2.00;;;14.00;72.60;;;;;;6291851;28;20056;-81
2024/03/30 08:29:47;;;;;;;9.98;1.90;;;14.50;88.80;;;;;;6278538;28;20056;-83
2024/03/30 08:32:50;;;;;;;7.93;1.80;;;15.00;48.70;;;;;;6251387;28;20053;-82
2024/03/30 08:35:51;;;;;;;8.02;2.08;;;15.40;9.30;;;;;;6275163;28;20060;-82
2024/03/30 08:38:52;;;;;;;6.75;2.13;;;15.70;7.90;;;;;;6245982;28;20072;-81
2024/03/30 08:41:52;;;;;;;6.63;1.60;;;15.90;1.00;;;;;;6269207;28;20143;-82
2024/03/30 08:44:53;;;;;;;7.78;1.70;;;15.90;5.40;;;;;;6249086;28;20049;-82
2024/03/30 08:47:54;;;;;;;9.00;2.10;;;16.30;1.00;;;;;;6281928;28;20519;-82
2024/03/30 08:50:54;;;;;;;6.45;1.65;;;17.10;1.00;;;;;;6278965;28;20098;-82
2024/03/30 08:53:55;;;;;;;8.90;1.45;;;17.70;1.00;;;;;;6303830;28;20497;-82
2024/03/30 08:56:56;;;;;;;9.15;1.48;;;17.90;1.00;;;;;;6273794;28;20083;-82
2024/03/30 08:59:56;;;;;;;5.78;1.60;;;18.00;1.00;;;;;;6298985;28;20064;-82
2024/03/30 09:02:57;;;;;;;4.85;1.20;;;18.40;1.00;;;;;;6297790;28;20056;-82
2024/03/30 09:05:58;;;;;;;8.38;1.42;;;18.30;1.00;;;;;;6274233;28;20060;-81
2024/03/30 09:08:58;;;;;;;6.22;1.40;;;18.50;1.00;;;;;;6277387;28;20420;-81
2024/03/30 09:11:59;;;;;;;6.43;1.42;;;18.70;1.00;;;;;;6323832;28;20052;-82
2024/03/30 09:14:59;;;;;;;7.85;1.63;;;18.90;1.00;;;;;;6258028;28;20061;-81
2024/03/30 09:18:00;;;;;;;7.25;1.30;;;19.30;1.00;;;;;;6270430;28;20061;-81
2024/03/30 09:21:05;;;;;;;6.60;1.20;;;19.20;1.00;;;;;;6289874;28;20404;-81
2024/03/30 09:24:06;;;;;;;8.63;1.27;;;18.90;1.00;;;;;;6272008;28;20053;-81
2024/03/30 09:27:06;;;;;;;7.63;1.33;;;18.20;1.00;;;;;;6278154;28;20060;-80
2024/03/30 09:30:07;;;;;;;8.80;1.45;;;17.10;1.00;;;;;;6284779;28;20128;-81
2024/03/30 09:33:08;;;;;;;7.68;1.30;;;16.60;1.00;;;;;;6287482;28;20049;-83
2024/03/30 09:36:11;;;;;;;7.85;1.40;;;16.30;1.00;;;;;;6291702;28;20693;-82
2024/03/30 09:39:12;;;;;;;7.72;1.50;;;16.10;1.00;;;;;;6256188;28;20068;-84
2024/03/30 09:42:13;;;;;;;6.20;1.63;;;16.00;1.00;;;;;;6278741;28;20048;-82
2024/03/30 09:45:13;;;;;;;7.22;1.40;;;16.00;1.00;;;;;;6241529;28;20648;-84
2024/03/30 09:48:14;;;;;;;7.80;1.70;;;15.90;1.00;;;;;;6279221;28;20052;-82
2024/03/30 09:51:14;;;;;;;9.80;1.95;;;15.70;1.00;;;;;;6255794;28;20053;-82
2024/03/30 09:54:15;;;;;;;10.20;1.60;;;16.50;1.00;;;;;;6277591;28;20045;-81
2024/03/30 09:57:16;;;;;;;7.20;1.15;;;17.20;1.00;;;;;;6276636;28;20494;-79
2024/03/30 10:00:16;;;;;;;6.20;0.90;;;17.20;1.00;;;;;;6263425;28;20045;-80
2024/03/30 10:03:17;;;;;;;9.07;1.20;;;16.60;1.00;;;;;;6270113;28;20148;-81
2024/03/30 10:06:18;;;;;;;6.32;1.13;;;16.00;1.00;;;;;;6293214;28;20363;-81
2024/03/30 10:09:18;;;;;;;5.82;1.50;;;15.40;1.00;;;;;;6272780;28;20068;-79
2024/03/30 10:12:19;;;;;;;8.82;1.55;;;15.10;1.00;;;;;;6284100;28;20056;-78
2024/03/30 10:15:20;;;;;;;7.68;1.40;;;15.00;1.00;;;;;;6248719;28;20538;-78
2024/03/30 10:18:20;;;;;;;6.75;1.83;;;15.10;1.00;;;;;;6272627;28;20065;-78
2024/03/30 10:21:21;;;;;;;5.90;1.50;;;15.20;1.00;;;;;;6305941;28;20053;-78
2024/03/30 10:24:21;;;;;;;7.97;1.70;;;15.10;1.00;;;;;;6281957;28;20520;-79
2024/03/30 10:27:22;;;;;;;7.28;1.20;;;16.00;1.00;;;;;;6275973;28;20084;-79
2024/03/30 10:30:23;;;;;;;6.95;1.48;;;17.30;1.00;;;;;;6288115;28;20052;-80
2024/03/30 10:33:24;;;;;;;5.85;1.10;;;17.80;1.00;;;;;;6270398;28;20071;-81
2024/03/30 10:36:25;;;;;;;6.07;1.10;;;18.30;1.00;;;;;;6294404;28;20060;-82
2024/03/30 10:39:25;;;;;;;4.00;1.30;;;18.30;1.00;;;;;;6270100;28;20671;-82
2024/03/30 10:42:26;;;;;;;3.50;0.80;;;18.80;1.00;;;;;;6271804;28;20051;-84
2024/03/30 10:45:27;;;;;;;3.42;0.82;;;19.40;1.00;;;;;;6249988;28;20539;-82
2024/03/30 10:48:29;;;;;;;4.93;1.05;;;19.90;1.00;;;;;;6266664;28;20136;-82
2024/03/30 10:51:30;;;;;;;4.60;0.90;;;20.00;1.00;;;;;;6267315;28;20053;-82
2024/03/30 10:54:30;;;;;;;3.85;1.08;;;20.50;1.00;;;;;;6276356;28;20189;-82
2024/03/30 10:57:31;;;;;;;4.57;1.20;;;20.70;1.00;;;;;;6266997;28;20065;-83
2024/03/30 11:00:32;;;;;;;4.20;0.90;;;20.80;1.00;;;;;;6254953;28;20060;-86
2024/03/30 11:03:33;;;;;;;4.13;1.05;;;20.80;1.00;;;;;;6268958;28;20056;-89
2024/03/30 11:06:34;;;;;;;5.55;1.25;;;20.70;1.00;;;;;;6260974;28;20057;-87
2024/03/30 11:09:37;;;;;;;4.72;1.45;;;20.10;1.00;;;;;;6294618;28;20052;-84
2024/03/30 11:12:37;;;;;;;6.25;0.90;;;20.70;1.00;;;;;;6270731;28;20065;-83
2024/03/30 11:15:38;;;;;;;1.80;0.70;;;20.70;1.00;;;;;;6260118;28;20198;-82
2024/03/30 11:18:39;;;;;;;2.75;0.77;;;20.00;1.00;;;;;;6293160;28;20056;-82
2024/03/30 11:21:39;;;;;;;3.65;0.80;;;19.10;1.00;;;;;;6281019;28;20071;-82
2024/03/30 11:24:40;;;;;;;5.35;0.77;;;18.70;1.00;;;;;;6268397;28;20065;-82
2024/03/30 11:27:41;;;;;;;5.25;1.23;;;18.60;1.00;;;;;;6292511;28;20102;-82
2024/03/30 11:30:42;;;;;;;4.57;1.02;;;18.40;1.00;;;;;;6263651;28;20053;-81
2024/03/30 11:33:44;;;;;;;4.22;1.10;;;18.30;1.00;;;;;;6275928;28;20129;-81
2024/03/30 11:36:45;;;;;;;7.75;1.20;;;18.10;1.00;;;;;;6268725;28;20057;-81
2024/03/30 11:39:46;;;;;;;6.05;1.48;;;17.60;1.00;;;;;;6292540;28;20048;-81
2024/03/30 11:42:47;;;;;;;5.82;1.00;;;17.60;1.00;;;;;;6252615;28;20091;-81
2024/03/30 11:45:48;;;;;;;4.35;0.90;;;18.30;1.00;;;;;;6286234;28;20818;-81
2024/03/30 11:48:49;;;;;;;4.50;0.90;;;19.00;1.00;;;;;;6227306;28;20056;-81
2024/03/30 11:51:50;;;;;;;4.03;1.00;;;19.50;1.00;;;;;;6325052;28;20522;-82
2024/03/30 11:54:50;;;;;;;4.75;1.10;;;19.90;1.00;;;;;;6269672;28;20057;-83
2024/03/30 11:57:51;;;;;;;7.45;1.00;;;20.90;1.00;;;;;;6291697;28;20088;-82
2024/03/30 12:00:52;;;;;;;5.25;1.25;;;21.40;1.00;;;;;;6228263;28;20053;-83
2024/03/30 12:03:53;;;;;;;4.82;1.00;;;21.50;1.00;;;;;;6276188;28;20095;-82
2024/03/30 12:06:55;;;;;;;6.75;0.90;;;21.70;1.00;;;;;;6290993;28;20064;-82
2024/03/30 12:09:56;;;;;;;3.67;0.98;;;21.20;1.00;;;;;;6251701;28;20523;-82
2024/03/30 12:12:57;;;;;;;6.90;1.63;;;20.50;1.00;;;;;;6291020;28;20053;-82
2024/03/30 12:15:58;;;;;;;5.40;1.10;;;20.20;1.00;;;;;;6265520;28;20053;-81
2024/03/30 12:18:59;;;;;;;6.13;1.00;;;20.10;1.00;;;;;;6291718;28;20077;-82
2024/03/30 12:21:59;;;;;;;5.75;1.15;;;19.80;1.00;;;;;;6282463;28;20124;-81
2024/03/30 12:25:00;;;;;;;4.22;1.02;;;19.10;1.00;;;;;;6267747;28;20410;-81
2024/03/30 12:28:01;;;;;;;2.92;1.20;;;19.50;1.00;;;;;;6290243;28;20059;-83
2024/03/30 12:31:03;;;;;;;6.85;1.35;;;20.40;1.00;;;;;;6261957;28;20080;-82
2024/03/30 12:34:04;;;;;;;4.40;1.05;;;20.60;1.00;;;;;;6242911;28;20063;-82
2024/03/30 12:37:04;;;;;;;5.57;1.67;;;20.60;1.00;;;;;;6274505;28;20056;-82
2024/03/30 12:40:05;;;;;;;4.20;1.08;;;21.50;1.00;;;;;;6251576;28;20100;-82
2024/03/30 12:43:06;;;;;;;2.60;0.75;;;21.80;1.00;;;;;;6272760;28;20577;-83
2024/03/30 12:46:07;;;;;;;4.15;1.00;;;21.90;1.00;;;;;;6267475;28;20055;-83
2024/03/30 12:49:07;;;;;;;4.00;1.10;;;22.60;1.00;;;;;;6226430;28;20064;-82
2024/03/30 12:52:08;;;;;;;10.30;1.38;;;22.20;1.00;;;;;;6324161;28;20067;-81
2024/03/30 12:55:09;;;;;;;4.47;1.10;;;22.20;1.00;;;;;;6250906;28;20053;-82
2024/03/30 12:58:10;;;;;;;3.47;0.93;;;22.60;1.00;;;;;;6287807;28;20137;-80
2024/03/30 13:01:11;;;;;;;4.32;1.10;;;22.70;1.00;;;;;;6266830;28;20421;-82
2024/03/30 13:04:12;;;;;;;5.55;0.95;;;22.00;1.00;;;;;;6225633;28;20053;-81
2024/03/30 13:07:12;;;;;;;4.88;1.00;;;20.10;1.00;;;;;;6290808;28;20099;-80
2024/03/30 13:10:13;;;;;;;4.38;1.35;;;19.00;1.00;;;;;;6251135;28;20143;-81
2024/03/30 13:13:14;;;;;;;5.65;1.10;;;19.40;1.00;;;;;;6265703;28;20084;-81
2024/03/30 13:16:15;;;;;;;4.72;1.02;;;19.80;1.00;;;;;;6266012;28;20057;-80
2024/03/30 13:19:16;;;;;;;7.40;1.33;;;19.30;1.00;;;;;;6292091;28;20552;-81
2024/03/30 13:22:16;;;;;;;11.20;1.55;;;19.30;1.00;;;;;;6268734;28;20527;-81
2024/03/30 13:25:17;;;;;;;4.78;1.40;;;18.90;1.00;;;;;;6274735;28;20135;-81
2024/03/30 13:28:18;;;;;;;5.35;1.23;;;19.90;1.00;;;;;;6260788;28;20076;-82
2024/03/30 13:31:19;;;;;;;4.38;1.10;;;20.90;1.00;;;;;;6275596;28;20139;-82
2024/03/30 13:34:20;;;;;;;3.72;1.00;;;22.00;1.00;;;;;;6250237;28;20482;-82
2024/03/30 13:37:21;;;;;;;3.88;0.95;;;22.20;1.00;;;;;;6290813;28;20143;-82
2024/03/30 13:40:22;;;;;;;4.63;0.98;;;21.90;1.00;;;;;;6266689;28;20053;-82
2024/03/30 13:43:22;;;;;;;5.10;1.17;;;21.80;1.00;;;;;;6267542;28;20092;-82
2024/03/30 13:46:23;;;;;;;6.20;1.67;;;21.60;1.00;;;;;;6271181;28;20194;-82
2024/03/30 13:49:24;;;;;;;6.28;1.27;;;21.60;1.00;;;;;;6278638;28;20456;-82
2024/03/30 13:52:25;;;;;;;3.55;1.00;;;21.90;1.00;;;;;;6254574;28;20063;-81
2024/03/30 13:55:26;;;;;;;7.65;0.93;;;21.60;1.00;;;;;;6294945;28;20159;-81
2024/03/30 13:58:29;;;;;;;10.73;1.27;;;20.60;1.00;;;;;;6270246;28;20431;-81
2024/03/30 14:01:30;;;;;;;4.50;0.80;;;21.20;1.00;;;;;;6295443;28;20082;-81
2024/03/30 14:04:30;;;;;;;5.50;1.10;;;21.80;1.00;;;;;;6270646;28;20412;-81
2024/03/30 14:07:31;;;;;;;9.57;1.45;;;22.00;1.00;;;;;;6294606;28;20060;-81
2024/03/30 14:10:32;;;;;;;5.97;0.93;;;22.20;1.00;;;;;;6271198;28;20060;-81
2024/03/30 14:13:34;;;;;;;4.68;1.00;;;21.80;1.00;;;;;;6283091;28;21006;-81
2024/03/30 14:16:34;;;;;;;3.17;0.90;;;22.10;1.00;;;;;;6267742;28;20103;-82
2024/03/30 14:19:35;;;;;;;3.05;0.82;;;22.10;1.00;;;;;;6277808;28;20064;-80
2024/03/30 14:22:37;;;;;;;3.90;1.00;;;21.20;1.00;;;;;;6270565;28;20482;-81
2024/03/30 14:25:38;;;;;;;4.10;1.00;;;21.00;1.00;;;;;;6262045;28;20496;-81
2024/03/30 14:28:39;;;;;;;4.70;1.10;;;20.60;1.00;;;;;;6271371;28;20104;-81
2024/03/30 14:31:39;;;;;;;2.97;0.90;;;20.70;1.00;;;;;;6264479;28;20068;-82
2024/03/30 14:34:40;;;;;;;4.10;0.80;;;21.10;1.00;;;;;;6275307;28;20077;-82
2024/03/30 14:37:41;;;;;;;4.55;1.00;;;20.80;1.00;;;;;;6270171;28;20778;-84
2024/03/30 14:40:42;;;;;;;4.53;1.25;;;20.30;1.00;;;;;;6253886;28;20057;-81
2024/03/30 14:43:42;;;;;;;4.53;0.98;;;19.60;1.00;;;;;;6263523;28;20059;-79
2024/03/30 14:46:43;;;;;;;5.00;1.20;;;19.60;1.00;;;;;;6272862;28;20049;-79
2024/03/30 14:49:44;;;;;;;3.50;0.82;;;20.00;1.00;;;;;;6292938;28;20060;-81
2024/03/30 14:52:45;;;;;;;6.50;1.10;;;20.20;1.00;;;;;;6271793;28;20053;-81
2024/03/30 14:55:45;;;;;;;3.58;0.98;;;20.30;1.00;;;;;;6257470;28;20061;-80
2024/03/30 14:58:46;;;;;;;4.18;1.00;;;20.20;1.00;;;;;;6270142;28;20060;-80
2024/03/30 15:01:47;;;;;;;4.00;1.00;;;20.10;1.00;;;;;;6268517;28;20499;-80
2024/03/30 15:04:48;;;;;;;5.85;1.35;;;19.90;1.00;;;;;;6292741;28;20052;-81
2024/03/30 15:07:49;;;;;;;3.85;0.85;;;19.40;1.00;;;;;;6269036;28;20140;-80
2024/03/30 15:10:50;;;;;;;3.28;0.80;;;19.40;1.00;;;;;;6301958;28;20523;-79
2024/03/30 15:13:50;;;;;;;3.28;0.80;;;19.20;1.00;;;;;;6270567;28;20135;-80
2024/03/30 15:16:51;;;;;;;2.92;0.85;;;18.90;1.00;;;;;;6268651;28;20838;-79
2024/03/30 15:19:54;;;;;;;3.47;0.90;;;18.30;1.00;;;;;;6275718;28;20131;-79
2024/03/30 15:22:54;;;;;;;4.22;1.02;;;18.50;1.00;;;;;;6268629;28;20053;-80
2024/03/30 15:25:55;;;;;;;4.25;1.02;;;18.70;1.00;;;;;;6274100;28;20059;-80
2024/03/30 15:28:56;;;;;;;4.43;1.30;;;18.50;1.00;;;;;;6272000;28;20113;-80
2024/03/30 15:32:15;;;;;;;5.25;1.10;;;18.00;1.00;;;;;;6252370;28;20061;-79
2024/03/30 15:35:16;;;;;;;5.88;1.30;;;17.70;1.00;;;;;;6275704;28;20071;-79
2024/03/30 15:38:17;;;;;;;4.35;1.20;;;17.70;1.00;;;;;;6268443;28;20523;-79
2024/03/30 15:41:18;;;;;;;3.08;0.95;;;17.50;1.00;;;;;;6287038;28;20916;-79
2024/03/30 15:44:19;;;;;;;4.65;1.02;;;16.80;1.00;;;;;;6257223;28;20064;-78
2024/03/30 15:47:21;;;;;;;2.88;0.90;;;16.40;1.00;;;;;;6268385;28;20061;-77
2024/03/30 15:50:22;;;;;;;4.90;1.05;;;16.10;1.00;;;;;;6292222;28;20060;-77
2024/03/30 15:53:23;;;;;;;5.78;1.20;;;16.20;1.00;;;;;;6268572;28;20706;-81
2024/03/30 15:56:24;;;;;;;6.70;1.13;;;16.30;1.00;;;;;;6292274;28;20133;-79